createdAt,value
2023-04-03T00:02:07.792Z,-1.30
2023-04-03T00:04:57.876Z,-1.30
2023-04-03T00:07:47.287Z,-1.40
2023-04-03T00:10:39.858Z,-1.40
2023-04-03T00:13:32.378Z,-1.40
2023-04-03T00:16:24.278Z,-1.40
2023-04-03T00:19:15.153Z,-1.50
2023-04-03T00:22:07.860Z,-1.50
2023-04-03T00:24:57.533Z,-1.50
2023-04-03T00:27:48.731Z,-1.40
2023-04-03T00:30:39.739Z,-1.50
2023-04-03T00:33:30.680Z,-1.50
2023-04-03T00:36:20.561Z,-1.60
2023-04-03T00:39:10.532Z,-1.60
2023-04-03T00:42:03.365Z,-1.60
2023-04-03T00:45:29.822Z,-1.60
2023-04-03T00:48:23.531Z,-1.60
2023-04-03T00:51:17.408Z,-1.60
2023-04-03T00:54:09.902Z,-1.70
2023-04-03T00:57:01.195Z,-1.70
2023-04-03T00:59:54.999Z,-1.70
2023-04-03T01:02:46.853Z,-1.70
2023-04-03T01:05:36.943Z,-1.70
2023-04-03T01:08:27.729Z,-1.90
2023-04-03T01:11:17.096Z,-1.80
2023-04-03T01:14:07.952Z,-1.80
2023-04-03T01:16:59.054Z,-1.80
2023-04-03T01:20:01.078Z,-1.90
2023-04-03T01:22:59.410Z,-1.90
2023-04-03T01:25:54.292Z,-1.90
2023-04-03T01:28:43.975Z,-1.90
2023-04-03T01:31:47.110Z,-1.80
2023-04-03T01:34:43.560Z,-2.00
2023-04-03T01:37:33.980Z,-2.10
2023-04-03T01:40:24.030Z,-2.00
2023-04-03T01:43:13.581Z,-2.00
2023-04-03T01:46:04.759Z,-2.00
2023-04-03T01:48:59.884Z,-2.30
2023-04-03T01:51:49.889Z,-2.00
2023-04-03T01:54:39.382Z,-2.10
2023-04-03T01:57:29.656Z,-2.10
2023-04-03T02:00:19.958Z,-2.10
2023-04-03T02:03:11.470Z,-2.10
2023-04-03T02:06:02.747Z,-2.00
2023-04-03T02:08:52.403Z,-2.00
2023-04-03T02:12:07.542Z,-2.00
2023-04-03T02:15:12.559Z,-2.00
2023-04-03T02:18:01.933Z,-2.10
2023-04-03T02:20:58.178Z,-2.10
2023-04-03T02:23:49.020Z,-2.30
2023-04-03T02:26:39.264Z,-2.10
2023-04-03T02:29:29.062Z,-2.20
2023-04-03T02:32:20.189Z,-2.10
2023-04-03T02:35:12.163Z,-2.20
2023-04-03T02:38:02.528Z,-2.20
2023-04-03T02:40:54.341Z,-2.40
2023-04-03T02:43:47.568Z,-2.20
2023-04-03T02:46:38.649Z,-2.30
2023-04-03T02:49:32.133Z,-2.30
2023-04-03T02:52:26.279Z,-2.20
2023-04-03T02:55:20.602Z,-2.10
2023-04-03T02:58:13.382Z,-2.30
2023-04-03T03:01:02.820Z,-2.20
2023-04-03T03:03:52.659Z,-2.10
2023-04-03T03:06:44.853Z,-2.30
2023-04-03T03:09:35.719Z,-2.30
2023-04-03T03:12:26.000Z,-2.20
2023-04-03T03:15:18.640Z,-2.40
2023-04-03T03:18:09.921Z,-2.40
2023-04-03T03:21:01.480Z,-2.40
2023-04-03T03:23:51.273Z,-2.30
2023-04-03T03:26:43.653Z,-2.50
2023-04-03T03:29:34.824Z,-2.50
2023-04-03T03:32:26.138Z,-2.30
2023-04-03T03:35:25.065Z,-2.50
2023-04-03T03:38:16.550Z,-2.40
2023-04-03T03:41:10.071Z,-2.60
2023-04-03T03:44:01.057Z,-2.50
2023-04-03T03:46:51.367Z,-2.60
2023-04-03T03:49:42.702Z,-2.60
2023-04-03T03:52:37.877Z,-2.70
2023-04-03T03:55:28.624Z,-2.70
2023-04-03T03:58:18.568Z,-2.50
2023-04-03T04:01:10.498Z,-2.70
2023-04-03T04:04:01.016Z,-2.60
2023-04-03T04:06:56.768Z,-2.50
2023-04-03T04:09:46.128Z,-2.90
2023-04-03T04:12:37.031Z,-2.60
2023-04-03T04:15:27.019Z,-2.40
2023-04-03T04:18:17.020Z,-2.60
2023-04-03T04:21:09.568Z,-2.40
2023-04-03T04:24:01.602Z,-2.60
2023-04-03T04:26:53.667Z,-2.40
2023-04-03T04:29:45.740Z,-2.30
2023-04-03T04:32:41.509Z,-2.40
2023-04-03T04:35:40.608Z,-2.30
2023-04-03T04:38:30.508Z,-2.60
2023-04-03T04:41:26.668Z,-2.30
2023-04-03T04:44:19.088Z,-2.10
2023-04-03T04:47:09.825Z,-2.20
2023-04-03T04:50:01.915Z,-2.10
2023-04-03T04:52:51.554Z,-1.90
2023-04-03T04:55:43.880Z,-2.30
2023-04-03T04:58:41.112Z,-1.90
2023-04-03T05:01:31.052Z,-1.90
2023-04-03T05:04:21.381Z,-1.80
2023-04-03T05:07:13.158Z,-1.60
2023-04-03T05:10:02.877Z,-1.70
2023-04-03T05:12:52.301Z,-1.60
2023-04-03T05:15:49.893Z,-1.60
2023-04-03T05:18:39.783Z,-1.80
2023-04-03T05:21:33.792Z,-1.40
2023-04-03T05:24:25.265Z,-1.40
2023-04-03T05:27:14.783Z,-1.30
2023-04-03T05:30:04.474Z,-1.30
2023-04-03T05:32:58.456Z,-1.20
2023-04-03T05:35:48.873Z,-1.10
2023-04-03T05:38:38.944Z,-1.10
2023-04-03T05:41:28.543Z,-1.00
2023-04-03T05:44:17.954Z,-1.00
2023-04-03T05:47:17.527Z,-0.90
2023-04-03T05:50:14.560Z,-0.90
2023-04-03T05:53:11.719Z,-0.80
2023-04-03T05:56:02.465Z,-0.70
2023-04-03T05:58:53.620Z,-0.70
2023-04-03T06:01:49.121Z,-0.60
2023-04-03T06:04:44.412Z,-0.50
2023-04-03T06:07:41.529Z,-0.40
2023-04-03T06:10:40.498Z,-0.30
2023-04-03T06:13:30.059Z,-0.20
2023-04-03T06:16:21.265Z,-0.10
2023-04-03T06:19:11.182Z,0.00
2023-04-03T06:22:00.969Z,0.00
2023-04-03T06:25:00.521Z,0.10
2023-04-03T06:27:50.775Z,0.20
2023-04-03T06:30:42.510Z,0.30
2023-04-03T06:33:33.710Z,0.30
2023-04-03T06:36:27.865Z,0.30
2023-04-03T06:39:32.107Z,0.40
2023-04-03T06:42:26.476Z,0.60
2023-04-03T06:45:16.891Z,0.70
2023-04-03T06:48:09.359Z,0.70
2023-04-03T06:51:05.328Z,0.70
2023-04-03T06:53:58.764Z,0.70
2023-04-03T06:56:50.344Z,0.90
2023-04-03T06:59:45.059Z,0.90
2023-04-03T07:02:34.806Z,1.00
2023-04-03T07:05:24.767Z,1.20
2023-04-03T07:08:18.980Z,1.20
2023-04-03T07:11:12.205Z,1.30
2023-04-03T07:14:06.925Z,1.40
2023-04-03T07:16:57.899Z,1.50
2023-04-03T07:19:55.456Z,1.60
2023-04-03T07:22:46.393Z,1.60
2023-04-03T07:25:45.620Z,1.80
2023-04-03T07:28:41.404Z,1.80
2023-04-03T07:31:37.765Z,2.00
2023-04-03T07:34:36.608Z,2.20
2023-04-03T07:37:27.226Z,2.30
2023-04-03T07:40:37.009Z,2.40
2023-04-03T07:43:36.710Z,2.50
2023-04-03T07:46:32.131Z,2.50
2023-04-03T07:49:24.623Z,2.40
2023-04-03T07:52:24.282Z,2.50
2023-04-03T07:55:14.210Z,2.80
2023-04-03T07:58:03.816Z,3.00
2023-04-03T08:00:53.703Z,3.00
2023-04-03T08:03:48.799Z,3.30
2023-04-03T08:06:46.926Z,3.50
2023-04-03T08:09:41.264Z,3.70
2023-04-03T08:12:41.210Z,3.70
2023-04-03T08:15:33.181Z,3.40
2023-04-03T08:18:35.882Z,3.60
2023-04-03T08:21:35.720Z,3.60
2023-04-03T08:24:31.143Z,3.80
2023-04-03T08:27:33.048Z,3.80
2023-04-03T08:30:24.320Z,4.00
2023-04-03T08:33:16.986Z,4.30
2023-04-03T08:36:19.210Z,4.60
2023-04-03T08:39:11.983Z,4.80
2023-04-03T08:42:06.047Z,4.70
2023-04-03T08:45:09.001Z,4.80
2023-04-03T08:48:14.284Z,5.00
2023-04-03T08:51:32.426Z,4.90
2023-04-03T08:54:40.438Z,4.80
2023-04-03T08:57:35.828Z,4.70
2023-04-03T09:00:40.244Z,4.30
2023-04-03T09:03:35.900Z,4.20
2023-04-03T09:06:40.327Z,3.90
2023-04-03T09:09:53.263Z,3.70
2023-04-03T09:12:51.525Z,3.50
2023-04-03T09:15:47.121Z,3.60
2023-04-03T09:19:08.508Z,3.90
2023-04-03T09:22:22.826Z,3.90
2023-04-03T09:25:33.616Z,3.70
2023-04-03T09:28:43.103Z,4.10
2023-04-03T09:32:09.158Z,4.80
2023-04-03T09:35:47.266Z,5.40
2023-04-03T09:38:48.857Z,5.00
2023-04-03T09:41:48.177Z,5.00
2023-04-03T09:44:46.663Z,4.70
2023-04-03T09:51:03.294Z,4.70
2023-04-03T09:53:56.181Z,5.50
2023-04-03T09:56:58.960Z,6.10
2023-04-03T10:00:03.080Z,6.00
2023-04-03T10:03:07.248Z,5.70
2023-04-03T10:06:00.942Z,5.40
2023-04-03T10:09:09.002Z,5.60
2023-04-03T10:12:10.742Z,6.40
2023-04-03T10:15:13.461Z,7.20
2023-04-03T10:18:23.583Z,7.10
2023-04-03T10:21:27.562Z,6.70
2023-04-03T10:24:29.992Z,6.30
2023-04-03T10:27:50.662Z,5.80
2023-04-03T10:30:52.090Z,5.50
2023-04-03T10:34:07.217Z,5.50
2023-04-03T10:37:13.174Z,5.50
2023-04-03T10:40:12.796Z,5.80
2023-04-03T10:43:35.798Z,6.00
2023-04-03T10:46:43.956Z,6.20
2023-04-03T10:50:05.624Z,6.20
2023-04-03T10:53:17.387Z,5.90
2023-04-03T10:56:19.894Z,5.60
2023-04-03T10:59:32.169Z,5.60
2023-04-03T11:02:31.770Z,5.90
2023-04-03T11:05:58.871Z,6.20
2023-04-03T11:09:03.092Z,6.40
2023-04-03T11:12:27.084Z,6.90
2023-04-03T11:15:30.056Z,7.10
2023-04-03T11:18:28.464Z,6.60
2023-04-03T11:21:38.598Z,6.10
2023-04-03T11:24:37.285Z,5.70
2023-04-03T11:27:35.642Z,6.00
2023-04-03T11:30:32.592Z,6.00
2023-04-03T11:33:47.629Z,6.00
2023-04-03T11:36:58.038Z,6.20
2023-04-03T11:40:13.537Z,7.40
2023-04-03T11:43:25.158Z,7.20
2023-04-03T11:46:22.914Z,6.40
2023-04-03T11:50:05.324Z,5.80
2023-04-03T11:53:34.527Z,5.90
2023-04-03T11:56:50.835Z,6.90
2023-04-03T11:59:55.040Z,7.60
2023-04-03T12:02:54.441Z,6.90
2023-04-03T12:05:58.212Z,6.00
2023-04-03T12:08:57.849Z,5.60
2023-04-03T12:12:01.680Z,6.50
2023-04-03T12:15:04.171Z,7.00
2023-04-03T12:17:57.289Z,7.50
2023-04-03T12:21:12.620Z,7.50
2023-04-03T12:24:16.292Z,7.40
2023-04-03T12:27:34.599Z,6.80
2023-04-03T12:30:37.789Z,6.70
2023-04-03T12:33:49.647Z,7.50
2023-04-03T12:37:06.780Z,7.80
2023-04-03T12:40:18.054Z,7.80
2023-04-03T12:43:43.869Z,7.80
2023-04-03T12:46:45.595Z,7.50
2023-04-03T12:49:52.875Z,7.10
2023-04-03T12:52:58.585Z,6.90
2023-04-03T12:55:56.977Z,7.80
2023-04-03T12:58:49.541Z,7.90
2023-04-03T13:01:43.730Z,7.30
2023-04-03T13:04:42.953Z,7.10
2023-04-03T13:07:36.313Z,7.30
2023-04-03T13:10:28.411Z,6.80
2023-04-03T13:13:21.924Z,6.80
2023-04-03T13:16:21.799Z,6.90
2023-04-03T13:19:22.034Z,7.50
2023-04-03T13:22:51.639Z,7.40
2023-04-03T13:26:06.208Z,7.40
2023-04-03T13:29:20.711Z,6.70
2023-04-03T13:32:33.775Z,6.80
2023-04-03T13:35:42.330Z,6.90
2023-04-03T13:38:35.422Z,6.90
2023-04-03T13:41:44.215Z,6.60
2023-04-03T13:44:45.479Z,6.50
2023-04-03T13:47:49.287Z,6.10
2023-04-03T13:51:09.302Z,5.80
2023-04-03T13:54:08.141Z,6.20
2023-04-03T13:57:15.981Z,6.50
2023-04-03T14:00:44.261Z,6.50
2023-04-03T14:03:46.790Z,6.40
2023-04-03T14:06:51.097Z,6.20
2023-04-03T14:09:47.143Z,6.10
2023-04-03T14:12:43.179Z,5.90
2023-04-03T14:15:40.132Z,6.00
2023-04-03T14:18:31.712Z,6.00
2023-04-03T14:21:33.439Z,6.20
2023-04-03T14:24:27.601Z,6.40
2023-04-03T14:27:28.903Z,6.80
2023-04-03T14:30:24.623Z,6.60
2023-04-03T14:33:26.143Z,6.40
2023-04-03T14:36:21.102Z,5.70
2023-04-03T14:39:37.468Z,5.40
2023-04-03T14:42:35.861Z,5.30
2023-04-03T14:45:35.566Z,5.60
2023-04-03T14:48:32.041Z,5.60
2023-04-03T14:51:29.235Z,5.40
2023-04-03T14:54:31.480Z,5.10
2023-04-03T14:57:26.947Z,5.20
2023-04-03T15:00:24.430Z,5.20
2023-04-03T15:03:21.378Z,5.20
2023-04-03T15:06:14.427Z,5.30
2023-04-03T15:09:08.203Z,5.40
2023-04-03T15:15:13.042Z,5.50
2023-04-03T15:18:06.295Z,5.50
2023-04-03T15:20:57.184Z,5.50
2023-04-03T15:23:48.951Z,5.30
2023-04-03T15:26:40.429Z,5.20
2023-04-03T15:29:56.727Z,5.10
2023-04-03T15:32:48.604Z,5.00
2023-04-03T15:35:44.441Z,5.10
2023-04-03T15:38:41.984Z,5.20
2023-04-03T15:41:56.284Z,5.30
2023-04-03T15:45:03.514Z,5.20
2023-04-03T15:47:55.858Z,5.20
2023-04-03T15:50:46.950Z,5.10
2023-04-03T15:53:44.363Z,5.10
2023-04-03T15:56:56.307Z,4.90
2023-04-03T15:59:48.337Z,4.90
2023-04-03T16:02:42.348Z,4.60
2023-04-03T16:05:35.739Z,4.50
2023-04-03T16:08:26.922Z,4.40
2023-04-03T16:11:16.789Z,4.40
2023-04-03T16:14:12.421Z,4.30
2023-04-03T16:17:07.274Z,4.20
2023-04-03T16:20:04.655Z,4.10
2023-04-03T16:22:55.159Z,4.00
2023-04-03T16:25:49.024Z,3.80
2023-04-03T16:28:42.668Z,3.70
2023-04-03T16:31:38.008Z,3.60
2023-04-03T16:34:32.520Z,3.40
2023-04-03T16:37:31.041Z,3.40
2023-04-03T16:40:26.641Z,3.40
2023-04-03T16:43:18.380Z,3.50
2023-04-03T16:46:12.028Z,3.50
2023-04-03T16:49:14.804Z,3.40
2023-04-03T16:52:11.352Z,3.20
2023-04-03T16:55:07.399Z,3.00
2023-04-03T16:58:01.961Z,2.80
2023-04-03T17:00:55.109Z,2.70
2023-04-03T17:03:51.970Z,2.60
2023-04-03T17:06:49.049Z,2.50
2023-04-03T17:10:02.078Z,2.30
2023-04-03T17:13:03.031Z,2.20
2023-04-03T17:15:55.815Z,2.30
2023-04-03T17:18:52.188Z,2.40
2023-04-03T17:21:44.953Z,2.50
2023-04-03T17:24:41.093Z,2.60
2023-04-03T17:27:37.703Z,2.70
2023-04-03T17:30:32.043Z,2.60
2023-04-03T17:33:25.639Z,2.60
2023-04-03T17:36:20.838Z,2.40
2023-04-03T17:39:16.565Z,2.20
2023-04-03T17:42:11.337Z,2.00
2023-04-03T17:45:04.018Z,1.70
2023-04-03T17:47:57.305Z,1.50
2023-04-03T17:50:49.200Z,1.40
2023-04-03T17:53:45.585Z,1.20
2023-04-03T17:56:38.299Z,1.00
2023-04-03T17:59:32.306Z,0.90
2023-04-03T18:02:29.697Z,0.70
2023-04-03T18:05:39.570Z,0.60
2023-04-03T18:08:44.128Z,0.60
2023-04-03T18:11:36.826Z,0.50
2023-04-03T18:14:33.541Z,0.50
2023-04-03T18:17:24.690Z,0.40
2023-04-03T18:20:17.371Z,0.30
2023-04-03T18:23:15.771Z,0.20
2023-04-03T18:26:10.510Z,0.20
2023-04-03T18:29:04.706Z,0.10
2023-04-03T18:32:03.354Z,-0.10
2023-04-03T18:34:56.943Z,-0.20
2023-04-03T18:37:52.207Z,-0.30
2023-04-03T18:40:49.009Z,-0.50
2023-04-03T18:43:45.280Z,-0.60
2023-04-03T18:46:44.126Z,-0.60
2023-04-03T18:49:40.580Z,-0.60
2023-04-03T18:52:38.202Z,-0.50
2023-04-03T18:55:36.340Z,-0.60
2023-04-03T18:58:36.582Z,-0.60
2023-04-03T19:01:32.808Z,-0.60
2023-04-03T19:04:25.107Z,-0.70
2023-04-03T19:07:18.481Z,-0.60
2023-04-03T19:10:23.146Z,-0.60
2023-04-03T19:13:15.168Z,-0.60
2023-04-03T19:16:14.009Z,-0.60
2023-04-03T19:19:05.071Z,-0.60
2023-04-03T19:22:03.720Z,-0.60
2023-04-03T19:25:01.420Z,-0.70
2023-04-03T19:28:04.106Z,-0.80
2023-04-03T19:31:01.042Z,-0.80
2023-04-03T19:33:59.343Z,-0.90
2023-04-03T19:36:59.101Z,-0.80
2023-04-03T19:39:51.580Z,-0.80
2023-04-03T19:42:53.399Z,-0.70
2023-04-03T19:45:47.959Z,-0.70
2023-04-03T19:48:46.110Z,-0.70
2023-04-03T19:51:48.979Z,-0.80
2023-04-03T19:54:44.508Z,-0.70
2023-04-03T19:57:37.985Z,-0.50
2023-04-03T20:00:33.560Z,-0.40
2023-04-03T20:03:38.162Z,-0.30
2023-04-03T20:06:34.583Z,-0.10
2023-04-03T20:09:40.008Z,0.00
2023-04-03T20:12:32.026Z,0.10
2023-04-03T20:15:23.131Z,0.30
2023-04-03T20:18:24.438Z,0.40
2023-04-03T20:21:17.441Z,0.50
2023-04-03T20:24:12.534Z,0.60
2023-04-03T20:27:07.266Z,0.70
2023-04-03T20:30:01.673Z,0.70
2023-04-03T20:32:53.621Z,0.60
2023-04-03T20:35:44.727Z,0.50
2023-04-03T20:38:35.825Z,0.30
2023-04-03T20:41:26.681Z,0.30
2023-04-03T20:44:20.530Z,0.30
2023-04-03T20:47:13.273Z,0.20
2023-04-03T20:50:04.182Z,0.00
2023-04-03T20:52:55.379Z,0.00
2023-04-03T20:55:56.763Z,-0.10
2023-04-03T20:58:50.125Z,-0.10
2023-04-03T21:01:43.174Z,-0.20
2023-04-03T21:04:37.262Z,-0.30
2023-04-03T21:08:07.681Z,-0.30
2023-04-03T21:11:35.866Z,-0.40
2023-04-03T21:15:08.727Z,-0.50
2023-04-03T21:18:32.780Z,-0.50
2023-04-03T21:21:29.454Z,-0.50
2023-04-03T21:24:20.023Z,-0.70
2023-04-03T21:27:12.670Z,-0.70
2023-04-03T21:30:07.824Z,-0.80
2023-04-03T21:32:58.968Z,-0.80
2023-04-03T21:35:58.349Z,-0.80
2023-04-03T21:38:50.761Z,-0.90
2023-04-03T21:41:41.702Z,-0.90
2023-04-03T21:44:32.907Z,-1.00
2023-04-03T21:47:25.910Z,-0.90
2023-04-03T21:50:21.843Z,-0.80
2023-04-03T21:53:17.678Z,-0.70
2023-04-03T21:56:09.634Z,-0.60
2023-04-03T21:59:03.326Z,-0.60
2023-04-03T22:01:54.683Z,-0.70
2023-04-03T22:04:47.578Z,-0.80
2023-04-03T22:07:37.524Z,-0.90
2023-04-03T22:10:35.002Z,-1.10
2023-04-03T22:13:27.207Z,-1.10
2023-04-03T22:16:19.903Z,-1.20
2023-04-03T22:19:15.918Z,-1.20
2023-04-03T22:22:06.601Z,-1.20
2023-04-03T22:25:09.541Z,-1.00
2023-04-03T22:28:03.506Z,-1.20
2023-04-03T22:30:53.797Z,-0.80
2023-04-03T22:33:51.323Z,-0.70
2023-04-03T22:36:43.889Z,-0.60
2023-04-03T22:39:33.661Z,-0.60
2023-04-03T22:42:24.679Z,-0.60
2023-04-03T22:45:16.593Z,-0.50
2023-04-03T22:48:11.349Z,-0.40
2023-04-03T22:51:09.408Z,-0.40
2023-04-03T22:53:59.059Z,-0.30
2023-04-03T22:56:49.210Z,-0.40
2023-04-03T22:59:39.344Z,-0.40
2023-04-03T23:02:31.116Z,-0.50
2023-04-03T23:05:21.566Z,-0.70
2023-04-03T23:08:11.460Z,-0.90
2023-04-03T23:11:02.636Z,-1.00
2023-04-03T23:13:52.444Z,-1.10
2023-04-03T23:16:44.259Z,-1.30
2023-04-03T23:19:38.037Z,-1.40
2023-04-03T23:22:30.585Z,-1.50
2023-04-03T23:25:21.365Z,-1.70
2023-04-03T23:28:12.935Z,-1.80
2023-04-03T23:31:07.682Z,-1.90
2023-04-03T23:33:57.738Z,-2.00
2023-04-03T23:36:51.616Z,-2.10
2023-04-03T23:39:43.701Z,-2.20
2023-04-03T23:42:36.866Z,-2.30
2023-04-03T23:45:28.241Z,-2.40
2023-04-03T23:48:20.681Z,-2.50
2023-04-03T23:51:10.889Z,-2.40
2023-04-03T23:54:05.122Z,-2.60
2023-04-03T23:56:57.826Z,-2.50
2023-04-03T23:59:49.773Z,-2.60
